createdAt,value
2022-10-17T00:01:16.411Z,18.20
2022-10-17T00:04:07.277Z,18.20
2022-10-17T00:06:56.597Z,18.20
2022-10-17T00:09:46.205Z,18.20
2022-10-17T00:12:36.537Z,18.20
2022-10-17T00:15:25.847Z,18.20
2022-10-17T00:18:15.156Z,18.20
2022-10-17T00:21:06.088Z,18.20
2022-10-17T00:23:55.956Z,18.10
2022-10-17T00:26:45.290Z,18.10
2022-10-17T00:29:34.788Z,18.10
2022-10-17T00:32:24.285Z,18.10
2022-10-17T00:35:13.611Z,18.10
2022-10-17T00:38:05.702Z,18.10
2022-10-17T00:43:59.241Z,18.00
2022-10-17T00:46:48.628Z,18.00
2022-10-17T00:49:40.100Z,18.00
2022-10-17T00:52:31.789Z,17.90
2022-10-17T00:55:29.324Z,17.90
2022-10-17T00:58:19.489Z,17.90
2022-10-17T01:01:08.874Z,17.80
2022-10-17T01:03:58.179Z,17.80
2022-10-17T01:06:47.507Z,17.80
2022-10-17T01:09:37.618Z,17.80
2022-10-17T01:12:34.358Z,17.80
2022-10-17T01:15:40.205Z,17.70
2022-10-17T01:18:43.461Z,17.70
2022-10-17T01:21:42.723Z,17.70
2022-10-17T01:24:56.853Z,17.70
2022-10-17T01:28:01.570Z,17.70
2022-10-17T01:31:13.224Z,17.70
2022-10-17T01:34:09.267Z,17.60
2022-10-17T01:37:06.955Z,17.60
2022-10-17T01:40:05.323Z,17.60
2022-10-17T01:43:00.838Z,17.60
2022-10-17T01:45:57.297Z,17.60
2022-10-17T01:48:48.898Z,17.50
2022-10-17T01:51:41.877Z,17.50
2022-10-17T01:54:38.745Z,17.50
2022-10-17T01:57:34.515Z,17.50
2022-10-17T02:00:26.376Z,17.50
2022-10-17T02:03:20.925Z,17.50
2022-10-17T02:06:10.279Z,17.50
2022-10-17T02:08:59.613Z,17.50
2022-10-17T02:12:20.326Z,17.50
2022-10-17T02:15:36.213Z,17.60
2022-10-17T02:18:54.254Z,17.60
2022-10-17T02:21:52.714Z,17.60
2022-10-17T02:24:49.741Z,17.60
2022-10-17T02:27:50.069Z,17.60
2022-10-17T02:30:46.140Z,17.60
2022-10-17T02:33:41.579Z,17.70
2022-10-17T02:36:38.116Z,17.70
2022-10-17T02:39:30.129Z,17.70
2022-10-17T02:42:21.217Z,17.70
2022-10-17T02:45:11.700Z,17.70
2022-10-17T02:48:05.334Z,17.70
2022-10-17T02:51:05.073Z,17.70
2022-10-17T02:54:04.886Z,17.80
2022-10-17T02:57:01.294Z,17.80
2022-10-17T02:59:51.552Z,17.80
2022-10-17T03:02:42.767Z,17.80
2022-10-17T03:05:32.388Z,17.80
2022-10-17T03:08:24.174Z,17.80
2022-10-17T03:11:13.584Z,17.90
2022-10-17T03:14:03.063Z,17.90
2022-10-17T03:16:52.897Z,17.90
2022-10-17T03:19:42.543Z,17.90
2022-10-17T03:22:32.317Z,17.80
2022-10-17T03:25:24.958Z,17.80
2022-10-17T03:28:14.599Z,17.80
2022-10-17T03:31:09.770Z,17.80
2022-10-17T03:34:00.361Z,17.80
2022-10-17T03:36:49.701Z,17.70
2022-10-17T03:39:40.170Z,17.60
2022-10-17T03:42:30.917Z,17.70
2022-10-17T03:45:20.502Z,17.60
2022-10-17T03:48:10.736Z,17.60
2022-10-17T03:51:02.334Z,17.60
2022-10-17T03:53:53.109Z,17.60
2022-10-17T03:56:43.433Z,17.60
2022-10-17T03:59:37.622Z,17.60
2022-10-17T04:02:32.844Z,17.60
2022-10-17T04:05:22.219Z,17.60
2022-10-17T04:08:11.573Z,17.60
2022-10-17T04:11:39.333Z,17.60
2022-10-17T04:14:29.575Z,17.60
2022-10-17T04:17:21.014Z,17.50
2022-10-17T04:20:11.720Z,17.50
2022-10-17T04:23:01.420Z,17.50
2022-10-17T04:25:50.962Z,17.50
2022-10-17T04:28:40.657Z,17.50
2022-10-17T04:31:30.077Z,17.50
2022-10-17T04:34:33.837Z,17.50
2022-10-17T04:37:23.241Z,17.50
2022-10-17T04:40:14.949Z,17.50
2022-10-17T04:43:04.305Z,17.60
2022-10-17T04:45:59.103Z,17.60
2022-10-17T04:48:48.447Z,17.60
2022-10-17T04:51:39.996Z,17.60
2022-10-17T04:54:45.542Z,17.70
2022-10-17T04:57:36.732Z,17.70
2022-10-17T05:00:32.939Z,17.70
2022-10-17T05:03:34.659Z,17.70
2022-10-17T05:06:27.919Z,17.70
2022-10-17T05:09:37.095Z,17.70
2022-10-17T05:12:27.853Z,17.70
2022-10-17T05:15:17.880Z,17.70
2022-10-17T05:18:09.036Z,17.80
2022-10-17T05:20:59.454Z,17.80
2022-10-17T05:23:48.847Z,17.80
2022-10-17T05:26:39.678Z,17.80
2022-10-17T05:29:29.073Z,17.80
2022-10-17T05:32:27.356Z,17.80
2022-10-17T05:35:17.517Z,17.90
2022-10-17T05:38:06.976Z,17.90
2022-10-17T05:40:59.770Z,17.90
2022-10-17T05:43:51.441Z,18.00
2022-10-17T05:46:45.080Z,18.00
2022-10-17T05:49:45.077Z,18.00
2022-10-17T05:52:41.960Z,18.00
2022-10-17T05:55:37.452Z,18.00
2022-10-17T06:01:56.951Z,18.10
2022-10-17T06:04:48.564Z,18.20
2022-10-17T06:07:37.947Z,18.40
2022-10-17T06:10:28.502Z,18.50
2022-10-17T06:13:18.595Z,18.80
2022-10-17T06:16:11.917Z,19.10
2022-10-17T06:19:02.785Z,19.40
2022-10-17T06:21:52.198Z,19.80
2022-10-17T06:24:44.356Z,20.20
2022-10-17T06:27:34.959Z,20.60
2022-10-17T06:30:24.419Z,20.90
2022-10-17T06:33:13.864Z,21.20
2022-10-17T06:36:06.889Z,21.50
2022-10-17T06:38:57.261Z,21.70
2022-10-17T06:41:54.193Z,21.90
2022-10-17T06:44:54.818Z,22.00
2022-10-17T06:48:06.122Z,22.00
2022-10-17T06:51:09.883Z,22.00
2022-10-17T06:54:08.113Z,22.00
2022-10-17T06:57:16.142Z,21.90
2022-10-17T07:00:15.077Z,21.90
2022-10-17T07:03:09.163Z,21.90
2022-10-17T07:05:58.844Z,21.90
2022-10-17T07:08:50.479Z,22.00
2022-10-17T07:11:41.361Z,22.00
2022-10-17T07:14:32.865Z,22.00
2022-10-17T07:17:22.362Z,22.00
2022-10-17T07:20:12.888Z,22.00
2022-10-17T07:23:02.296Z,22.00
2022-10-17T07:25:53.446Z,22.10
2022-10-17T07:28:45.400Z,22.20
2022-10-17T07:31:48.843Z,22.50
2022-10-17T07:34:38.799Z,22.90
2022-10-17T07:37:30.725Z,23.30
2022-10-17T07:40:21.676Z,23.80
2022-10-17T07:43:12.531Z,24.40
2022-10-17T07:46:03.122Z,24.90
2022-10-17T07:48:52.643Z,25.60
2022-10-17T07:51:43.936Z,26.20
2022-10-17T07:54:33.360Z,26.80
2022-10-17T07:57:22.756Z,27.50
2022-10-17T08:00:14.426Z,28.00
2022-10-17T08:03:04.189Z,28.50
2022-10-17T08:05:53.453Z,29.00
2022-10-17T08:08:43.310Z,29.30
2022-10-17T08:11:33.121Z,29.60
2022-10-17T08:14:22.451Z,29.80
2022-10-17T08:17:13.339Z,30.00
2022-10-17T08:20:02.782Z,30.20
2022-10-17T08:22:55.208Z,30.30
2022-10-17T08:25:44.555Z,30.50
2022-10-17T08:28:36.597Z,30.60
2022-10-17T08:31:27.338Z,30.70
2022-10-17T08:34:18.064Z,30.70
2022-10-17T08:37:07.461Z,30.80
2022-10-17T08:39:56.889Z,30.80
2022-10-17T08:43:26.006Z,30.90
2022-10-17T08:49:20.353Z,31.10
2022-10-17T08:52:23.488Z,31.10
2022-10-17T08:58:16.423Z,31.30
2022-10-17T09:01:18.542Z,31.30
2022-10-17T09:04:57.463Z,31.40
2022-10-17T09:07:52.795Z,31.50
2022-10-17T09:10:59.391Z,31.70
2022-10-17T09:14:04.097Z,31.90
2022-10-17T09:17:08.951Z,32.10
2022-10-17T09:20:05.819Z,32.40
2022-10-17T09:23:01.203Z,32.60
2022-10-17T09:25:55.225Z,32.80
2022-10-17T09:28:45.491Z,33.00
2022-10-17T09:31:43.394Z,33.20
2022-10-17T09:34:34.110Z,33.50
2022-10-17T09:37:32.299Z,33.80
2022-10-17T09:40:28.093Z,34.10
2022-10-17T09:43:17.449Z,34.40
2022-10-17T09:46:12.245Z,34.60
2022-10-17T09:49:06.753Z,34.80
2022-10-17T09:51:56.333Z,35.10
2022-10-17T09:54:49.813Z,35.30
2022-10-17T09:57:56.674Z,35.50
2022-10-17T10:00:49.046Z,35.70
2022-10-17T10:03:40.266Z,35.80
2022-10-17T10:06:29.619Z,35.90
2022-10-17T10:09:25.911Z,36.00
2022-10-17T10:12:22.899Z,36.10
2022-10-17T10:15:37.109Z,36.30
2022-10-17T10:18:34.762Z,36.50
2022-10-17T10:21:26.685Z,36.70
2022-10-17T10:24:16.106Z,36.90
2022-10-17T10:27:06.201Z,37.00
2022-10-17T10:29:56.910Z,37.20
2022-10-17T10:32:49.331Z,37.30
2022-10-17T10:35:39.313Z,37.40
2022-10-17T10:38:29.286Z,37.50
2022-10-17T10:41:18.813Z,37.50
2022-10-17T10:44:15.626Z,37.50
2022-10-17T10:47:26.298Z,37.50
2022-10-17T10:50:28.412Z,37.40
2022-10-17T10:53:35.454Z,37.30
2022-10-17T10:56:30.420Z,37.30
2022-10-17T10:59:26.605Z,37.20
2022-10-17T11:02:22.652Z,37.20
2022-10-17T11:05:21.674Z,37.10
2022-10-17T11:08:21.687Z,37.00
2022-10-17T11:11:19.809Z,37.00
2022-10-17T11:14:17.799Z,37.00
2022-10-17T11:17:17.483Z,37.10
2022-10-17T11:20:21.510Z,37.00
2022-10-17T11:23:20.783Z,36.90
2022-10-17T11:26:17.612Z,36.60
2022-10-17T11:29:09.043Z,36.10
2022-10-17T11:32:02.285Z,35.70
2022-10-17T11:34:54.887Z,35.10
2022-10-17T11:37:51.383Z,34.60
2022-10-17T11:40:48.722Z,34.00
2022-10-17T11:43:46.112Z,33.40
2022-10-17T11:46:38.181Z,32.90
2022-10-17T11:49:36.878Z,32.40
2022-10-17T11:52:55.400Z,31.90
2022-10-17T11:55:48.583Z,31.50
2022-10-17T11:58:44.559Z,31.10
2022-10-17T12:01:40.460Z,30.70
2022-10-17T12:04:49.747Z,30.50
2022-10-17T12:07:47.555Z,30.20
2022-10-17T12:10:49.285Z,29.90
2022-10-17T12:13:54.760Z,29.70
2022-10-17T12:16:47.691Z,29.50
2022-10-17T12:19:38.435Z,29.40
2022-10-17T12:22:28.107Z,29.20
2022-10-17T12:25:21.557Z,29.10
2022-10-17T12:28:19.908Z,29.00
2022-10-17T12:31:23.233Z,28.90
2022-10-17T12:34:19.463Z,28.80
2022-10-17T12:37:15.087Z,28.70
2022-10-17T12:40:05.096Z,28.70
2022-10-17T12:42:54.529Z,28.60
2022-10-17T12:45:51.514Z,28.50
2022-10-17T12:49:25.645Z,28.50
2022-10-17T12:52:27.260Z,28.40
2022-10-17T12:55:19.305Z,28.40
2022-10-17T12:58:15.765Z,28.30
2022-10-17T13:01:23.783Z,28.30
2022-10-17T13:04:14.156Z,28.20
2022-10-17T13:07:03.533Z,28.20
2022-10-17T13:09:53.489Z,28.10
2022-10-17T13:12:42.961Z,28.10
2022-10-17T13:15:32.522Z,28.00
2022-10-17T13:18:27.311Z,28.00
2022-10-17T13:21:17.745Z,27.90
2022-10-17T13:24:22.444Z,27.90
2022-10-17T13:27:30.741Z,27.90
2022-10-17T13:30:31.209Z,27.80
2022-10-17T13:33:35.831Z,27.80
2022-10-17T13:36:26.612Z,27.80
2022-10-17T13:39:32.617Z,27.70
2022-10-17T13:42:32.198Z,27.70
2022-10-17T13:45:33.516Z,27.60
2022-10-17T13:48:27.804Z,27.60
2022-10-17T13:51:18.688Z,27.50
2022-10-17T13:54:36.846Z,27.50
2022-10-17T13:57:31.411Z,27.40
2022-10-17T14:00:23.109Z,27.40
2022-10-17T14:03:12.932Z,27.30
2022-10-17T14:06:25.773Z,27.20
2022-10-17T14:09:23.465Z,27.10
2022-10-17T14:12:13.989Z,27.00
2022-10-17T14:15:10.488Z,27.00
2022-10-17T14:18:07.807Z,26.90
2022-10-17T14:21:34.078Z,26.80
2022-10-17T14:24:32.608Z,26.80
2022-10-17T14:27:32.046Z,26.70
2022-10-17T14:33:50.701Z,26.50
2022-10-17T14:36:42.979Z,26.30
2022-10-17T14:39:33.676Z,26.20
2022-10-17T14:42:24.370Z,26.10
2022-10-17T14:45:21.294Z,26.00
2022-10-17T14:48:17.339Z,25.80
2022-10-17T14:51:09.207Z,25.70
2022-10-17T14:54:18.478Z,25.50
2022-10-17T14:57:19.057Z,25.40
2022-10-17T15:00:10.912Z,25.20
2022-10-17T15:03:00.283Z,25.10
2022-10-17T15:05:54.585Z,24.90
2022-10-17T15:11:38.482Z,24.60
2022-10-17T15:14:29.336Z,24.50
2022-10-17T15:17:22.113Z,24.40
2022-10-17T15:20:16.171Z,24.30
2022-10-17T15:23:05.917Z,24.20
2022-10-17T15:25:55.546Z,24.00
2022-10-17T15:28:45.384Z,23.90
2022-10-17T15:31:36.212Z,23.80
2022-10-17T15:34:25.594Z,23.70
2022-10-17T15:37:21.200Z,23.60
2022-10-17T15:40:16.314Z,23.50
2022-10-17T15:43:05.618Z,23.40
2022-10-17T15:45:55.158Z,23.30
2022-10-17T15:48:46.197Z,23.20
2022-10-17T15:51:35.718Z,23.10
2022-10-17T15:54:25.064Z,23.00
2022-10-17T15:57:19.540Z,22.90
2022-10-17T16:00:16.876Z,22.80
2022-10-17T16:03:09.575Z,22.70
2022-10-17T16:06:00.526Z,22.70
2022-10-17T16:08:51.004Z,22.60
2022-10-17T16:11:42.996Z,22.50
2022-10-17T16:14:32.873Z,22.40
2022-10-17T16:17:22.295Z,22.30
2022-10-17T16:20:13.636Z,22.20
2022-10-17T16:23:05.644Z,22.20
2022-10-17T16:25:54.995Z,22.00
2022-10-17T16:28:46.349Z,21.90
2022-10-17T16:31:38.575Z,21.90
2022-10-17T16:34:27.929Z,21.80
2022-10-17T16:37:17.309Z,21.70
2022-10-17T16:40:09.199Z,21.60
2022-10-17T16:42:58.606Z,21.60
2022-10-17T16:45:47.893Z,21.50
2022-10-17T16:48:37.315Z,21.50
2022-10-17T16:51:29.039Z,21.40
2022-10-17T16:54:18.593Z,21.30
2022-10-17T16:57:09.545Z,21.30
2022-10-17T16:59:59.375Z,21.20
2022-10-17T17:02:49.650Z,21.20
2022-10-17T17:05:39.555Z,21.20
2022-10-17T17:08:29.029Z,21.10
2022-10-17T17:11:20.984Z,21.00
2022-10-17T17:14:13.418Z,21.00
2022-10-17T17:17:02.797Z,20.90
2022-10-17T17:19:52.077Z,20.90
2022-10-17T17:22:41.423Z,20.90
2022-10-17T17:25:30.741Z,20.80
2022-10-17T17:28:20.061Z,20.80
2022-10-17T17:31:14.263Z,20.80
2022-10-17T17:34:04.754Z,20.70
2022-10-17T17:36:54.103Z,20.70
2022-10-17T17:39:44.422Z,20.70
2022-10-17T17:42:33.737Z,20.70
2022-10-17T17:45:23.082Z,20.60
2022-10-17T17:48:14.171Z,20.60
2022-10-17T17:51:05.565Z,20.60
2022-10-17T17:53:55.703Z,20.60
2022-10-17T17:56:45.033Z,20.50
2022-10-17T17:59:34.426Z,20.50
2022-10-17T18:02:23.919Z,20.50
2022-10-17T18:05:15.051Z,20.50
2022-10-17T18:08:05.171Z,20.40
2022-10-17T18:10:56.486Z,20.40
2022-10-17T18:13:45.907Z,20.40
2022-10-17T18:16:37.522Z,20.40
2022-10-17T18:19:28.436Z,20.30
2022-10-17T18:22:19.524Z,20.30
2022-10-17T18:25:09.627Z,20.30
2022-10-17T18:27:58.946Z,20.20
2022-10-17T18:30:48.952Z,20.20
2022-10-17T18:33:38.466Z,20.20
2022-10-17T18:36:28.958Z,20.10
2022-10-17T18:39:19.931Z,20.20
2022-10-17T18:42:11.302Z,20.10
2022-10-17T18:45:00.714Z,20.10
2022-10-17T18:47:52.686Z,20.10
2022-10-17T18:50:42.065Z,20.00
2022-10-17T18:53:31.510Z,20.00
2022-10-17T18:56:23.652Z,20.00
2022-10-17T18:59:13.068Z,19.90
2022-10-17T19:02:02.499Z,19.90
2022-10-17T19:04:51.922Z,19.90
2022-10-17T19:07:41.368Z,19.80
2022-10-17T19:10:30.736Z,19.80
2022-10-17T19:13:21.825Z,19.80
2022-10-17T19:16:14.342Z,19.80
2022-10-17T19:19:07.402Z,19.80
2022-10-17T19:21:57.078Z,19.70
2022-10-17T19:24:46.397Z,19.70
2022-10-17T19:27:35.749Z,19.70
2022-10-17T19:30:26.620Z,19.70
2022-10-17T19:33:16.048Z,19.70
2022-10-17T19:36:08.411Z,19.70
2022-10-17T19:38:58.160Z,19.70
2022-10-17T19:41:49.283Z,19.70
2022-10-17T19:44:38.612Z,19.70
2022-10-17T19:47:29.651Z,19.60
2022-10-17T19:50:19.068Z,19.60
2022-10-17T19:53:08.396Z,19.60
2022-10-17T19:55:58.332Z,19.70
2022-10-17T19:58:48.814Z,19.60
2022-10-17T20:01:39.824Z,19.60
2022-10-17T20:04:30.670Z,19.60
2022-10-17T20:07:19.975Z,19.60
2022-10-17T20:10:10.491Z,19.60
2022-10-17T20:12:59.846Z,19.60
2022-10-17T20:15:58.188Z,19.50
2022-10-17T20:18:47.802Z,19.50
2022-10-17T20:21:40.483Z,19.50
2022-10-17T20:24:29.869Z,19.40
2022-10-17T20:27:20.134Z,19.40
2022-10-17T20:30:12.417Z,19.40
2022-10-17T20:33:01.817Z,19.40
2022-10-17T20:35:51.376Z,19.30
2022-10-17T20:38:42.224Z,19.30
2022-10-17T20:41:31.578Z,19.30
2022-10-17T20:44:21.010Z,19.30
2022-10-17T20:47:16.112Z,19.30
2022-10-17T20:50:06.808Z,19.30
2022-10-17T20:53:10.937Z,19.30
2022-10-17T20:56:09.379Z,19.30
2022-10-17T20:59:02.259Z,19.30
2022-10-17T21:01:51.696Z,19.30
2022-10-17T21:04:46.408Z,19.30
2022-10-17T21:07:36.425Z,19.30
2022-10-17T21:10:35.282Z,19.40
2022-10-17T21:13:26.675Z,19.40
2022-10-17T21:16:19.112Z,19.40
2022-10-17T21:19:08.638Z,19.40
2022-10-17T21:21:57.969Z,19.40
2022-10-17T21:24:47.298Z,19.40
2022-10-17T21:27:36.870Z,19.40
2022-10-17T21:30:27.541Z,19.40
2022-10-17T21:33:16.853Z,19.40
2022-10-17T21:36:07.042Z,19.40
2022-10-17T21:38:58.119Z,19.40
2022-10-17T21:41:47.465Z,19.40
2022-10-17T21:44:37.302Z,19.40
2022-10-17T21:47:29.669Z,19.40
2022-10-17T21:50:19.103Z,19.40
2022-10-17T21:53:08.474Z,19.40
2022-10-17T21:56:01.390Z,19.40
2022-10-17T21:58:51.982Z,19.40
2022-10-17T22:01:43.330Z,19.40
2022-10-17T22:04:34.143Z,19.40
2022-10-17T22:07:23.469Z,19.40
2022-10-17T22:10:12.877Z,19.40
2022-10-17T22:13:02.190Z,19.40
2022-10-17T22:15:51.737Z,19.40
2022-10-17T22:18:42.106Z,19.40
2022-10-17T22:21:33.124Z,19.40
2022-10-17T22:24:23.750Z,19.40
2022-10-17T22:27:13.201Z,19.40
2022-10-17T22:30:02.551Z,19.30
2022-10-17T22:32:51.904Z,19.30
2022-10-17T22:35:41.990Z,19.30
2022-10-17T22:38:32.957Z,19.30
2022-10-17T22:41:22.281Z,19.30
2022-10-17T22:44:11.593Z,19.30
2022-10-17T22:47:00.958Z,19.40
2022-10-17T22:49:50.483Z,19.30
2022-10-17T22:52:39.851Z,19.30
2022-10-17T22:55:30.534Z,19.40
2022-10-17T22:58:19.865Z,19.30
2022-10-17T23:01:14.531Z,19.30
2022-10-17T23:04:04.164Z,19.30
2022-10-17T23:06:53.503Z,19.30
2022-10-17T23:09:43.224Z,19.20
2022-10-17T23:12:33.919Z,19.20
2022-10-17T23:15:23.234Z,19.20
2022-10-17T23:18:12.604Z,19.20
2022-10-17T23:21:01.937Z,19.10
2022-10-17T23:23:51.275Z,19.10
2022-10-17T23:26:40.601Z,19.10
2022-10-17T23:29:35.585Z,19.10
2022-10-17T23:32:24.878Z,19.00
2022-10-17T23:35:14.243Z,19.00
2022-10-17T23:38:03.891Z,19.00
2022-10-17T23:40:53.205Z,19.00
2022-10-17T23:43:43.008Z,18.90
2022-10-17T23:46:34.150Z,19.00
2022-10-17T23:49:23.451Z,19.00
2022-10-17T23:52:12.775Z,18.90
2022-10-17T23:55:02.092Z,18.90
2022-10-17T23:57:51.365Z,18.90
